createdAt,value
2018-06-08T00:01:57.759Z,89.60
2018-06-08T00:04:25.338Z,89.80
2018-06-08T00:06:52.692Z,89.70
2018-06-08T00:09:19.983Z,89.50
2018-06-08T00:11:47.253Z,89.80
2018-06-08T00:14:14.599Z,89.70
2018-06-08T00:16:42.152Z,89.60
2018-06-08T00:19:09.414Z,89.70
2018-06-08T00:21:36.726Z,90.00
2018-06-08T00:24:04.020Z,89.80
2018-06-08T00:26:31.325Z,90.00
2018-06-08T00:28:58.605Z,89.90
2018-06-08T00:31:25.947Z,90.10
2018-06-08T00:33:53.273Z,90.00
2018-06-08T00:36:20.544Z,90.00
2018-06-08T00:38:47.842Z,89.80
2018-06-08T00:41:15.111Z,89.90
2018-06-08T00:46:09.747Z,90.20
2018-06-08T00:48:37.106Z,90.00
2018-06-08T00:51:04.495Z,89.70
2018-06-08T00:53:31.773Z,89.30
2018-06-08T00:55:59.167Z,89.30
2018-06-08T00:58:26.420Z,89.50
2018-06-08T01:00:53.753Z,89.50
2018-06-08T01:03:21.032Z,90.00
2018-06-08T01:05:48.414Z,90.20
2018-06-08T01:08:15.747Z,90.10
2018-06-08T01:10:43.095Z,90.20
2018-06-08T01:13:12.126Z,90.30
2018-06-08T01:15:39.833Z,90.50
2018-06-08T01:18:07.203Z,90.50
2018-06-08T01:20:34.484Z,90.70
2018-06-08T01:23:01.758Z,90.70
2018-06-08T01:25:29.057Z,90.60
2018-06-08T01:27:56.427Z,90.60
2018-06-08T01:30:23.749Z,90.60
2018-06-08T01:32:51.021Z,90.60
2018-06-08T01:35:18.275Z,90.60
2018-06-08T01:37:45.585Z,90.60
2018-06-08T01:40:12.884Z,90.60
2018-06-08T01:42:40.180Z,90.70
2018-06-08T01:45:07.526Z,90.60
2018-06-08T01:47:34.883Z,90.70
2018-06-08T01:50:02.221Z,90.60
2018-06-08T01:52:29.544Z,90.60
2018-06-08T01:57:24.133Z,90.60
2018-06-08T01:59:51.415Z,90.10
2018-06-08T02:02:18.695Z,90.10
2018-06-08T02:04:46.021Z,90.20
2018-06-08T02:07:13.281Z,90.60
2018-06-08T02:12:07.843Z,90.80
2018-06-08T02:14:35.220Z,90.60
2018-06-08T02:17:02.490Z,90.60
2018-06-08T02:19:29.756Z,90.50
2018-06-08T02:21:57.048Z,90.70
2018-06-08T02:24:24.440Z,90.80
2018-06-08T02:26:51.713Z,91.10
2018-06-08T02:29:18.965Z,91.40
2018-06-08T02:31:46.252Z,91.60
2018-06-08T02:34:13.558Z,92.00
2018-06-08T02:36:40.856Z,92.10
2018-06-08T02:39:08.117Z,91.90
2018-06-08T02:41:35.719Z,91.80
2018-06-08T02:44:03.293Z,91.50
2018-06-08T02:48:58.035Z,91.60
2018-06-08T02:51:25.317Z,91.80
2018-06-08T02:53:52.706Z,91.90
2018-06-08T02:56:19.982Z,92.50
2018-06-08T02:58:47.272Z,92.20
2018-06-08T03:01:14.710Z,91.80
2018-06-08T03:03:41.961Z,91.40
2018-06-08T03:06:09.247Z,91.20
2018-06-08T03:08:36.525Z,91.20
2018-06-08T03:11:03.769Z,91.00
2018-06-08T03:13:31.014Z,91.00
2018-06-08T03:15:58.286Z,90.90
2018-06-08T03:18:25.606Z,90.90
2018-06-08T03:20:53.433Z,91.00
2018-06-08T03:23:20.772Z,91.00
2018-06-08T03:25:48.027Z,91.20
2018-06-08T03:28:15.298Z,91.00
2018-06-08T03:30:42.583Z,91.00
2018-06-08T03:33:09.837Z,91.00
2018-06-08T03:38:50.612Z,90.60
2018-06-08T03:41:17.890Z,90.50
2018-06-08T03:43:45.179Z,90.40
2018-06-08T03:48:39.868Z,90.30
2018-06-08T03:51:07.744Z,90.40
2018-06-08T03:53:37.242Z,90.60
2018-06-08T03:56:17.959Z,90.90
2018-06-08T03:58:57.014Z,90.90
2018-06-08T04:01:24.606Z,90.80
2018-06-08T04:03:51.932Z,90.60
2018-06-08T04:06:19.609Z,90.50
2018-06-08T04:09:50.053Z,90.50
2018-06-08T04:12:18.172Z,90.20
2018-06-08T04:14:45.498Z,90.20
2018-06-08T04:19:40.059Z,90.10
2018-06-08T04:22:07.344Z,90.00
2018-06-08T04:24:34.649Z,89.60
2018-06-08T04:27:02.038Z,89.60
2018-06-08T04:29:29.418Z,89.50
2018-06-08T04:31:56.726Z,89.40
2018-06-08T04:34:24.046Z,89.50
2018-06-08T04:36:51.363Z,89.20
2018-06-08T04:39:18.605Z,88.70
2018-06-08T04:41:45.887Z,89.00
2018-06-08T04:44:13.223Z,88.90
2018-06-08T04:46:40.497Z,89.10
2018-06-08T04:49:07.756Z,89.20
2018-06-08T04:51:35.081Z,89.30
2018-06-08T04:54:02.458Z,90.00
2018-06-08T04:56:29.745Z,89.20
2018-06-08T04:58:57.063Z,89.30
2018-06-08T05:01:24.457Z,89.40
2018-06-08T05:03:51.779Z,89.90
2018-06-08T05:06:19.175Z,89.90
2018-06-08T05:08:47.097Z,88.90
2018-06-08T05:11:14.394Z,89.50
2018-06-08T05:13:41.676Z,89.70
2018-06-08T05:16:08.953Z,89.80
2018-06-08T05:18:36.271Z,89.50
2018-06-08T05:21:03.555Z,89.90
2018-06-08T05:23:30.888Z,89.90
2018-06-08T05:25:58.204Z,89.80
2018-06-08T05:28:25.546Z,89.50
2018-06-08T05:30:52.800Z,89.20
2018-06-08T05:33:20.252Z,89.30
2018-06-08T05:38:14.907Z,88.80
2018-06-08T05:40:42.239Z,88.10
2018-06-08T05:43:09.521Z,87.30
2018-06-08T05:45:36.914Z,86.50
2018-06-08T05:48:04.347Z,85.90
2018-06-08T05:50:31.646Z,86.70
2018-06-08T05:52:59.022Z,85.80
2018-06-08T05:55:26.382Z,85.60
2018-06-08T05:57:53.688Z,85.30
2018-06-08T06:00:21.293Z,85.70
2018-06-08T06:02:48.534Z,85.80
2018-06-08T06:05:15.788Z,85.70
2018-06-08T06:07:43.110Z,85.80
2018-06-08T06:12:37.875Z,85.70
2018-06-08T06:15:05.190Z,85.80
2018-06-08T06:19:59.875Z,86.00
2018-06-08T06:22:27.138Z,85.90
2018-06-08T06:24:54.478Z,85.70
2018-06-08T06:27:21.781Z,86.50
2018-06-08T06:29:49.049Z,85.00
2018-06-08T06:34:43.726Z,84.50
2018-06-08T06:37:11.066Z,84.10
2018-06-08T06:39:38.380Z,83.60
2018-06-08T06:42:06.767Z,83.00
2018-06-08T06:44:35.581Z,83.00
2018-06-08T06:47:13.337Z,82.70
2018-06-08T06:49:40.979Z,82.50
2018-06-08T06:52:08.251Z,82.40
2018-06-08T06:54:35.562Z,81.50
2018-06-08T06:59:30.105Z,81.00
2018-06-08T07:01:57.389Z,80.70
2018-06-08T07:04:24.672Z,78.60
2018-06-08T07:06:52.126Z,78.00
2018-06-08T07:09:19.431Z,77.00
2018-06-08T07:11:46.838Z,75.50
2018-06-08T07:14:14.136Z,72.90
2018-06-08T07:16:41.472Z,72.60
2018-06-08T07:19:08.833Z,72.90
2018-06-08T07:21:36.181Z,72.50
2018-06-08T07:24:03.484Z,72.80
2018-06-08T07:26:30.842Z,72.00
2018-06-08T07:28:58.122Z,72.50
2018-06-08T07:31:25.475Z,71.70
2018-06-08T07:33:52.794Z,70.70
2018-06-08T07:36:20.155Z,71.70
2018-06-08T07:38:47.481Z,71.00
2018-06-08T07:41:14.904Z,71.20
2018-06-08T07:43:42.179Z,70.70
2018-06-08T07:46:09.466Z,70.70
2018-06-08T07:48:36.717Z,69.50
2018-06-08T07:51:04.030Z,69.50
2018-06-08T07:53:31.335Z,70.50
2018-06-08T07:55:58.674Z,69.80
2018-06-08T07:58:25.947Z,69.70
2018-06-08T08:00:53.240Z,69.10
2018-06-08T08:03:20.563Z,69.10
2018-06-08T08:05:47.848Z,68.60
2018-06-08T08:08:15.292Z,67.30
2018-06-08T08:10:42.590Z,66.90
2018-06-08T08:13:09.860Z,67.00
2018-06-08T08:15:37.439Z,67.30
2018-06-08T08:18:04.729Z,66.70
2018-06-08T08:20:32.009Z,66.50
2018-06-08T08:22:59.429Z,67.00
2018-06-08T08:25:26.707Z,67.20
2018-06-08T08:27:54.076Z,67.50
2018-06-08T08:30:21.427Z,67.30
2018-06-08T08:32:48.861Z,67.70
2018-06-08T08:35:16.221Z,67.40
2018-06-08T08:37:43.697Z,67.00
2018-06-08T08:40:10.990Z,66.60
2018-06-08T08:42:38.465Z,65.60
2018-06-08T08:45:05.759Z,65.80
2018-06-08T08:47:33.026Z,66.10
2018-06-08T08:50:00.282Z,65.00
2018-06-08T08:52:27.596Z,64.50
2018-06-08T08:54:54.972Z,63.60
2018-06-08T08:57:22.347Z,63.10
2018-06-08T08:59:50.226Z,63.50
2018-06-08T09:02:17.601Z,63.80
2018-06-08T09:04:44.944Z,64.30
2018-06-08T09:07:12.780Z,64.30
2018-06-08T09:09:40.160Z,64.40
2018-06-08T09:12:07.425Z,63.40
2018-06-08T09:14:34.722Z,64.50
2018-06-08T09:17:01.993Z,63.50
2018-06-08T09:19:29.630Z,63.20
2018-06-08T09:21:57.065Z,62.30
2018-06-08T09:24:24.359Z,61.50
2018-06-08T09:26:51.655Z,61.20
2018-06-08T09:29:18.963Z,61.30
2018-06-08T09:34:13.675Z,61.80
2018-06-08T09:39:08.376Z,62.10
2018-06-08T09:41:35.662Z,60.20
2018-06-08T09:44:02.987Z,60.90
2018-06-08T09:46:30.260Z,60.90
2018-06-08T09:48:57.704Z,59.40
2018-06-08T09:51:25.030Z,58.90
2018-06-08T09:53:52.552Z,58.30
2018-06-08T09:56:19.898Z,57.80
2018-06-08T09:58:47.162Z,57.50
2018-06-08T10:01:14.731Z,57.70
2018-06-08T10:03:42.123Z,58.70
2018-06-08T10:06:10.345Z,57.90
2018-06-08T10:08:37.857Z,57.00
2018-06-08T10:11:05.314Z,57.00
2018-06-08T10:16:00.859Z,57.40
2018-06-08T10:20:55.627Z,57.20
2018-06-08T10:23:23.043Z,57.80
2018-06-08T10:25:50.467Z,57.50
2018-06-08T10:28:18.001Z,57.60
2018-06-08T10:30:46.372Z,56.90
2018-06-08T10:33:13.647Z,57.80
2018-06-08T10:35:41.237Z,57.10
2018-06-08T10:38:08.546Z,55.70
2018-06-08T10:43:20.815Z,55.30
2018-06-08T10:45:48.136Z,56.50
2018-06-08T10:48:15.398Z,57.20
2018-06-08T10:50:42.733Z,57.00
2018-06-08T10:53:10.001Z,56.70
2018-06-08T10:55:37.324Z,57.00
2018-06-08T10:58:04.710Z,56.00
2018-06-08T11:00:32.002Z,55.70
2018-06-08T11:02:59.319Z,55.10
2018-06-08T11:05:26.707Z,54.70
2018-06-08T11:07:54.005Z,54.80
2018-06-08T11:10:21.289Z,53.40
2018-06-08T11:12:48.653Z,53.10
2018-06-08T11:17:43.466Z,55.40
2018-06-08T11:20:11.806Z,54.40
2018-06-08T11:22:40.796Z,55.30
2018-06-08T11:25:10.783Z,53.50
2018-06-08T11:27:38.492Z,54.00
2018-06-08T11:30:06.266Z,53.30
2018-06-08T11:32:36.044Z,51.80
2018-06-08T11:35:03.326Z,51.70
2018-06-08T11:37:30.692Z,51.00
2018-06-08T11:39:58.045Z,51.10
2018-06-08T11:42:26.590Z,50.80
2018-06-08T11:44:54.539Z,49.90
2018-06-08T11:47:22.201Z,49.70
2018-06-08T11:49:49.517Z,49.70
2018-06-08T11:52:16.922Z,49.90
2018-06-08T11:54:44.196Z,49.00
2018-06-08T11:57:11.632Z,50.00
2018-06-08T11:59:39.016Z,50.80
2018-06-08T12:02:06.493Z,50.20
2018-06-08T12:04:34.000Z,48.70
2018-06-08T12:07:01.439Z,49.80
2018-06-08T12:09:29.075Z,49.70
2018-06-08T12:11:56.377Z,48.20
2018-06-08T12:14:23.840Z,46.80
2018-06-08T12:16:51.138Z,46.10
2018-06-08T12:19:18.448Z,45.90
2018-06-08T12:21:46.064Z,47.10
2018-06-08T12:24:14.394Z,45.00
2018-06-08T12:26:41.689Z,45.00
2018-06-08T12:29:08.974Z,43.70
2018-06-08T12:31:36.270Z,46.30
2018-06-08T12:34:03.558Z,45.70
2018-06-08T12:36:30.869Z,46.40
2018-06-08T12:38:58.351Z,45.60
2018-06-08T12:41:25.680Z,44.20
2018-06-08T12:43:52.997Z,43.40
2018-06-08T12:46:20.353Z,42.50
2018-06-08T12:51:16.307Z,44.50
2018-06-08T12:53:44.216Z,43.90
2018-06-08T12:56:11.726Z,43.40
2018-06-08T12:58:39.036Z,41.40
2018-06-08T13:01:06.616Z,42.00
2018-06-08T13:03:33.922Z,40.30
2018-06-08T13:06:01.277Z,39.70
2018-06-08T13:08:28.648Z,39.50
2018-06-08T13:10:56.045Z,39.10
2018-06-08T13:13:23.337Z,39.10
2018-06-08T13:15:50.772Z,39.20
2018-06-08T13:18:18.130Z,39.40
2018-06-08T13:20:45.403Z,39.90
2018-06-08T13:23:12.729Z,40.10
2018-06-08T13:28:07.406Z,39.00
2018-06-08T13:30:34.816Z,40.40
2018-06-08T13:33:02.310Z,40.50
2018-06-08T13:35:29.701Z,41.10
2018-06-08T13:37:57.350Z,38.70
2018-06-08T13:40:24.650Z,36.80
2018-06-08T13:42:52.311Z,35.80
2018-06-08T13:45:19.667Z,35.20
2018-06-08T13:47:47.072Z,35.70
2018-06-08T13:50:14.582Z,36.20
2018-06-08T13:52:41.908Z,36.50
2018-06-08T13:55:09.266Z,37.40
2018-06-08T13:57:37.161Z,36.70
2018-06-08T14:00:04.463Z,35.70
2018-06-08T14:02:31.878Z,36.20
2018-06-08T14:04:59.423Z,36.20
2018-06-08T14:07:26.764Z,35.80
2018-06-08T14:09:54.453Z,35.10
2018-06-08T14:12:21.910Z,36.00
2018-06-08T14:14:51.146Z,36.30
2018-06-08T14:19:46.705Z,36.80
2018-06-08T14:22:14.380Z,35.40
2018-06-08T14:24:41.792Z,34.80
2018-06-08T14:27:09.120Z,34.70
2018-06-08T14:29:36.405Z,35.90
2018-06-08T14:32:03.763Z,35.60
2018-06-08T14:34:31.305Z,34.30
2018-06-08T14:36:58.745Z,34.60
2018-06-08T14:39:26.259Z,33.90
2018-06-08T14:41:53.653Z,33.70
2018-06-08T14:44:21.106Z,34.60
2018-06-08T14:46:48.693Z,34.50
2018-06-08T14:49:16.949Z,33.60
2018-06-08T14:51:44.670Z,32.50
2018-06-08T14:54:12.267Z,31.60
2018-06-08T14:56:39.714Z,31.80
2018-06-08T14:59:07.156Z,31.20
2018-06-08T15:01:34.996Z,32.50
2018-06-08T15:04:02.355Z,33.00
2018-06-08T15:06:29.748Z,33.70
2018-06-08T15:08:58.127Z,34.50
2018-06-08T15:11:25.674Z,35.20
2018-06-08T15:13:53.049Z,35.60
2018-06-08T15:16:20.424Z,35.40
2018-06-08T15:18:47.783Z,35.40
2018-06-08T15:21:15.102Z,35.60
2018-06-08T15:23:42.995Z,35.50
2018-06-08T15:26:11.120Z,36.50
2018-06-08T15:28:38.471Z,37.20
2018-06-08T15:31:05.754Z,37.40
2018-06-08T15:33:33.166Z,37.80
2018-06-08T15:36:01.143Z,38.70
2018-06-08T15:38:28.848Z,39.70
2018-06-08T15:40:56.462Z,39.20
2018-06-08T15:43:23.780Z,39.30
2018-06-08T15:45:51.180Z,41.50
2018-06-08T16:01:23.922Z,43.10
2018-06-08T16:03:51.806Z,53.40
2018-06-08T16:06:19.468Z,53.60
2018-06-08T16:08:46.826Z,55.60
2018-06-08T16:11:14.466Z,56.70
2018-06-08T16:13:41.960Z,57.10
2018-06-08T16:16:09.433Z,57.00
2018-06-08T16:18:36.769Z,56.90
2018-06-08T16:21:04.171Z,56.30
2018-06-08T16:23:31.487Z,56.00
2018-06-08T16:26:05.193Z,55.70
2018-06-08T16:28:33.215Z,54.90
2018-06-08T16:31:01.988Z,52.30
2018-06-08T16:33:36.969Z,51.80
2018-06-08T16:36:09.864Z,51.40
2018-06-08T16:38:37.207Z,51.00
2018-06-08T16:41:04.624Z,51.80
2018-06-08T16:43:32.076Z,52.40
2018-06-08T16:46:02.532Z,52.50
2018-06-08T16:48:39.367Z,53.60
2018-06-08T16:51:08.579Z,53.50
2018-06-08T16:53:37.055Z,54.40
2018-06-08T16:56:05.549Z,54.70
2018-06-08T16:58:32.941Z,55.10
2018-06-08T17:01:00.582Z,55.00
2018-06-08T17:03:27.976Z,55.10
2018-06-08T17:05:55.536Z,55.10
2018-06-08T17:08:23.152Z,55.70
2018-06-08T17:10:53.958Z,54.80
2018-06-08T17:13:21.559Z,55.00
2018-06-08T17:15:49.553Z,55.80
2018-06-08T17:18:16.945Z,56.50
2018-06-08T17:20:44.555Z,57.50
2018-06-08T17:23:12.093Z,57.50
2018-06-08T17:25:40.889Z,57.80
2018-06-08T17:28:08.265Z,58.10
2018-06-08T17:30:35.822Z,58.20
2018-06-08T17:33:03.286Z,57.80
2018-06-08T17:35:31.311Z,58.10
2018-06-08T17:37:58.771Z,57.50
2018-06-08T17:40:26.226Z,57.90
2018-06-08T17:42:54.220Z,57.50
2018-06-08T17:45:22.399Z,57.30
2018-06-08T17:47:50.909Z,56.90
2018-06-08T17:50:18.893Z,57.40
2018-06-08T17:52:46.388Z,57.50
2018-06-08T17:55:15.418Z,57.40
2018-06-08T17:57:43.178Z,57.80
2018-06-08T18:00:12.608Z,57.30
2018-06-08T18:02:40.022Z,57.10
2018-06-08T18:05:09.102Z,56.70
2018-06-08T18:07:37.907Z,56.70
2018-06-08T18:10:05.878Z,57.50
2018-06-08T18:12:36.130Z,57.80
2018-06-08T18:15:04.114Z,58.00
2018-06-08T18:17:34.138Z,58.00
2018-06-08T18:20:01.820Z,58.00
2018-06-08T18:22:32.554Z,58.20
2018-06-08T18:25:00.604Z,58.10
2018-06-08T18:27:28.728Z,58.20
2018-06-08T18:29:56.171Z,58.40
2018-06-08T18:32:23.830Z,58.80
2018-06-08T18:34:51.317Z,59.30
2018-06-08T18:37:23.815Z,59.20
2018-06-08T18:39:54.885Z,59.30
2018-06-08T18:42:22.304Z,60.40
2018-06-08T18:44:51.215Z,61.20
2018-06-08T18:50:13.462Z,63.10
2018-06-08T18:52:43.442Z,64.50
2018-06-08T18:55:11.851Z,65.50
2018-06-08T18:57:39.504Z,66.40
2018-06-08T19:00:07.816Z,66.50
2018-06-08T19:05:04.380Z,66.80
2018-06-08T19:07:32.365Z,66.70
2018-06-08T19:10:01.738Z,67.00
2018-06-08T19:12:29.609Z,68.00
2018-06-08T19:14:57.499Z,69.10
2018-06-08T19:17:24.981Z,69.90
2018-06-08T19:19:52.959Z,70.40
2018-06-08T19:22:20.512Z,71.60
2018-06-08T19:24:50.370Z,72.50
2018-06-08T19:27:17.840Z,73.20
2018-06-08T19:29:45.210Z,73.50
2018-06-08T19:32:12.504Z,73.70
2018-06-08T19:34:42.568Z,73.70
2018-06-08T19:37:11.824Z,74.00
2018-06-08T19:39:40.946Z,74.40
2018-06-08T19:44:35.890Z,75.50
2018-06-08T19:47:04.974Z,76.30
2018-06-08T19:49:33.150Z,77.00
2018-06-08T19:52:00.987Z,77.70
2018-06-08T19:54:28.555Z,78.20
2018-06-08T19:56:56.689Z,78.50
2018-06-08T19:59:24.874Z,78.40
2018-06-08T20:01:52.845Z,78.40
2018-06-08T20:04:20.298Z,78.60
2018-06-08T20:06:49.163Z,78.70
2018-06-08T20:09:16.764Z,78.60
2018-06-08T20:11:44.222Z,78.60
2018-06-08T20:14:11.762Z,78.40
2018-06-08T20:16:39.847Z,78.60
2018-06-08T20:19:07.491Z,78.20
2018-06-08T20:21:35.260Z,78.50
2018-06-08T20:24:06.537Z,77.90
2018-06-08T20:26:46.068Z,77.80
2018-06-08T20:29:16.915Z,77.30
2018-06-08T20:31:49.113Z,77.10
2018-06-08T20:34:21.010Z,76.30
2018-06-08T20:36:48.590Z,75.20
2018-06-08T20:39:27.952Z,75.40
2018-06-08T20:41:55.715Z,75.20
2018-06-08T20:44:24.063Z,74.80
2018-06-08T20:46:51.795Z,74.80
2018-06-08T20:49:22.034Z,74.70
2018-06-08T20:51:50.488Z,75.30
2018-06-08T20:54:19.314Z,75.70
2018-06-08T20:56:57.034Z,75.90
2018-06-08T20:59:26.606Z,76.60
2018-06-08T21:01:54.470Z,76.70
2018-06-08T21:04:22.841Z,76.60
2018-06-08T21:06:51.076Z,77.00
2018-06-08T21:09:18.695Z,77.00
2018-06-08T21:11:46.201Z,76.90
2018-06-08T21:14:15.975Z,76.80
2018-06-08T21:16:45.471Z,76.60
2018-06-08T21:19:20.409Z,76.80
2018-06-08T21:21:49.836Z,77.60
2018-06-08T21:24:22.431Z,76.50
2018-06-08T21:26:56.136Z,76.80
2018-06-08T21:29:24.779Z,76.80
2018-06-08T21:31:52.227Z,76.80
2018-06-08T21:34:19.673Z,76.70
2018-06-08T21:36:47.074Z,77.30
2018-06-08T21:39:15.384Z,76.80
2018-06-08T21:41:42.847Z,76.90
2018-06-08T21:44:10.972Z,77.00
2018-06-08T21:46:38.413Z,76.50
2018-06-08T21:49:05.809Z,76.30
2018-06-08T21:51:33.211Z,77.00
2018-06-08T21:54:00.598Z,77.00
2018-06-08T21:56:28.138Z,77.30
2018-06-08T21:58:55.976Z,77.30
2018-06-08T22:01:24.028Z,77.60
2018-06-08T22:03:51.642Z,78.00
2018-06-08T22:06:19.235Z,78.40
2018-06-08T22:08:46.649Z,78.50
2018-06-08T22:11:14.061Z,78.40
2018-06-08T22:13:44.251Z,78.50
2018-06-08T22:16:11.693Z,78.60
2018-06-08T22:18:39.188Z,79.00
2018-06-08T22:21:06.572Z,79.30
2018-06-08T22:23:34.302Z,79.70
2018-06-08T22:26:01.872Z,79.90
2018-06-08T22:28:29.502Z,80.00
2018-06-08T22:30:56.831Z,79.90
2018-06-08T22:35:52.105Z,80.50
2018-06-08T22:38:20.013Z,80.60
2018-06-08T22:40:47.650Z,80.90
2018-06-08T22:43:15.166Z,80.90
2018-06-08T22:45:42.826Z,80.90
2018-06-08T22:48:16.874Z,80.90
2018-06-08T22:50:44.524Z,80.50
2018-06-08T22:53:12.642Z,80.20
2018-06-08T22:55:42.610Z,80.00
2018-06-08T22:58:10.862Z,80.00
2018-06-08T23:00:43.493Z,80.30
2018-06-08T23:03:10.891Z,80.70
2018-06-08T23:05:39.481Z,81.00
2018-06-08T23:08:06.824Z,81.30
2018-06-08T23:10:35.810Z,81.60
2018-06-08T23:13:05.411Z,81.50
2018-06-08T23:18:04.626Z,81.00
2018-06-08T23:20:32.204Z,81.00
2018-06-08T23:22:59.634Z,81.10
2018-06-08T23:25:28.382Z,81.50
2018-06-08T23:27:56.086Z,81.40
2018-06-08T23:30:23.788Z,81.60
2018-06-08T23:32:51.035Z,81.60
2018-06-08T23:35:18.499Z,81.50
2018-06-08T23:37:45.794Z,81.60
2018-06-08T23:40:13.212Z,81.40
2018-06-08T23:42:40.554Z,81.40
2018-06-08T23:45:07.893Z,81.50
2018-06-08T23:47:39.637Z,81.80
2018-06-08T23:50:13.617Z,81.70
2018-06-08T23:52:41.872Z,81.70
2018-06-08T23:55:14.189Z,81.70
2018-06-08T23:57:41.744Z,81.70
